sensor_id;sensor_type;location;lat;lon;timestamp;P1;durP1;ratioP1;P2;durP2;ratioP2
6860;SDS011;3469;47.060;15.460;2022-09-09T00:01:15;2.03;;;1.07;;
6860;SDS011;3469;47.060;15.460;2022-09-09T00:03:53;4.27;;;1.00;;
6860;SDS011;3469;47.060;15.460;2022-09-09T00:06:26;6.60;;;0.97;;
6860;SDS011;3469;47.060;15.460;2022-09-09T00:09:00;2.40;;;1.00;;
6860;SDS011;3469;47.060;15.460;2022-09-09T00:11:33;5.37;;;1.07;;
6860;SDS011;3469;47.060;15.460;2022-09-09T00:14:11;1.40;;;0.90;;
6860;SDS011;3469;47.060;15.460;2022-09-09T00:16:45;2.30;;;0.87;;
6860;SDS011;3469;47.060;15.460;2022-09-09T00:19:19;1.20;;;0.90;;
6860;SDS011;3469;47.060;15.460;2022-09-09T00:21:52;1.10;;;0.80;;
6860;SDS011;3469;47.060;15.460;2022-09-09T00:24:32;3.13;;;1.00;;
6860;SDS011;3469;47.060;15.460;2022-09-09T00:27:06;1.30;;;0.90;;
6860;SDS011;3469;47.060;15.460;2022-09-09T00:29:41;2.30;;;0.93;;
6860;SDS011;3469;47.060;15.460;2022-09-09T00:32:12;2.13;;;1.00;;
6860;SDS011;3469;47.060;15.460;2022-09-09T00:34:47;4.97;;;0.90;;
6860;SDS011;3469;47.060;15.460;2022-09-09T00:37:18;1.70;;;1.37;;
6860;SDS011;3469;47.060;15.460;2022-09-09T00:39:48;2.90;;;1.00;;
6860;SDS011;3469;47.060;15.460;2022-09-09T00:42:20;3.50;;;0.90;;
6860;SDS011;3469;47.060;15.460;2022-09-09T00:44:53;5.90;;;1.40;;
6860;SDS011;3469;47.060;15.460;2022-09-09T00:47:36;2.10;;;1.10;;
6860;SDS011;3469;47.060;15.460;2022-09-09T00:50:15;2.00;;;0.80;;
6860;SDS011;3469;47.060;15.460;2022-09-09T00:52:55;4.03;;;1.33;;
6860;SDS011;3469;47.060;15.460;2022-09-09T00:55:28;4.33;;;0.90;;
6860;SDS011;3469;47.060;15.460;2022-09-09T00:58:02;4.33;;;1.10;;
6860;SDS011;3469;47.060;15.460;2022-09-09T01:00:31;1.60;;;0.90;;
6860;SDS011;3469;47.060;15.460;2022-09-09T01:03:08;3.10;;;1.03;;
6860;SDS011;3469;47.060;15.460;2022-09-09T01:05:47;5.07;;;1.70;;
6860;SDS011;3469;47.060;15.460;2022-09-09T01:08:32;4.07;;;1.03;;
6860;SDS011;3469;47.060;15.460;2022-09-09T01:11:10;2.00;;;1.10;;
6860;SDS011;3469;47.060;15.460;2022-09-09T01:13:44;2.30;;;1.47;;
6860;SDS011;3469;47.060;15.460;2022-09-09T01:16:14;4.33;;;1.70;;
6860;SDS011;3469;47.060;15.460;2022-09-09T01:18:45;2.30;;;1.53;;
6860;SDS011;3469;47.060;15.460;2022-09-09T01:21:18;2.57;;;1.20;;
6860;SDS011;3469;47.060;15.460;2022-09-09T01:26:59;2.10;;;1.30;;
6860;SDS011;3469;47.060;15.460;2022-09-09T01:29:29;3.60;;;1.23;;
6860;SDS011;3469;47.060;15.460;2022-09-09T01:31:58;4.63;;;1.40;;
6860;SDS011;3469;47.060;15.460;2022-09-09T01:34:29;5.13;;;1.70;;
6860;SDS011;3469;47.060;15.460;2022-09-09T01:37:02;4.57;;;1.60;;
6860;SDS011;3469;47.060;15.460;2022-09-09T01:39:32;1.40;;;1.20;;
6860;SDS011;3469;47.060;15.460;2022-09-09T01:42:08;1.70;;;1.23;;
6860;SDS011;3469;47.060;15.460;2022-09-09T01:44:38;2.80;;;1.10;;
6860;SDS011;3469;47.060;15.460;2022-09-09T01:47:06;3.23;;;1.33;;
6860;SDS011;3469;47.060;15.460;2022-09-09T01:49:49;2.30;;;1.40;;
6860;SDS011;3469;47.060;15.460;2022-09-09T01:52:22;2.43;;;1.73;;
6860;SDS011;3469;47.060;15.460;2022-09-09T01:54:50;3.63;;;1.57;;
6860;SDS011;3469;47.060;15.460;2022-09-09T01:57:24;6.63;;;2.50;;
6860;SDS011;3469;47.060;15.460;2022-09-09T01:59:59;2.20;;;1.90;;
6860;SDS011;3469;47.060;15.460;2022-09-09T02:02:42;4.13;;;2.20;;
6860;SDS011;3469;47.060;15.460;2022-09-09T02:05:22;3.83;;;1.77;;
6860;SDS011;3469;47.060;15.460;2022-09-09T02:08:00;2.00;;;1.80;;
6860;SDS011;3469;47.060;15.460;2022-09-09T02:10:50;4.97;;;1.70;;
6860;SDS011;3469;47.060;15.460;2022-09-09T02:13:36;2.47;;;1.80;;
6860;SDS011;3469;47.060;15.460;2022-09-09T02:16:09;2.90;;;1.90;;
6860;SDS011;3469;47.060;15.460;2022-09-09T02:18:44;7.30;;;2.13;;
6860;SDS011;3469;47.060;15.460;2022-09-09T02:21:17;2.50;;;2.30;;
6860;SDS011;3469;47.060;15.460;2022-09-09T02:23:46;4.37;;;2.37;;
6860;SDS011;3469;47.060;15.460;2022-09-09T02:26:19;3.60;;;2.40;;
6860;SDS011;3469;47.060;15.460;2022-09-09T02:31:45;2.90;;;2.53;;
6860;SDS011;3469;47.060;15.460;2022-09-09T02:34:20;5.57;;;2.70;;
6860;SDS011;3469;47.060;15.460;2022-09-09T02:36:50;2.87;;;1.70;;
6860;SDS011;3469;47.060;15.460;2022-09-09T02:39:21;3.90;;;2.07;;
6860;SDS011;3469;47.060;15.460;2022-09-09T02:41:51;2.40;;;1.40;;
6860;SDS011;3469;47.060;15.460;2022-09-09T02:44:29;4.17;;;2.80;;
6860;SDS011;3469;47.060;15.460;2022-09-09T02:47:13;3.00;;;1.97;;
6860;SDS011;3469;47.060;15.460;2022-09-09T02:49:52;2.13;;;1.73;;
6860;SDS011;3469;47.060;15.460;2022-09-09T02:52:32;1.83;;;1.53;;
6860;SDS011;3469;47.060;15.460;2022-09-09T02:55:05;3.63;;;1.70;;
6860;SDS011;3469;47.060;15.460;2022-09-09T02:57:36;3.20;;;1.93;;
6860;SDS011;3469;47.060;15.460;2022-09-09T03:00:08;3.43;;;2.30;;
6860;SDS011;3469;47.060;15.460;2022-09-09T03:02:37;3.67;;;2.23;;
6860;SDS011;3469;47.060;15.460;2022-09-09T03:05:07;2.33;;;2.03;;
6860;SDS011;3469;47.060;15.460;2022-09-09T03:07:35;5.87;;;2.10;;
6860;SDS011;3469;47.060;15.460;2022-09-09T03:10:04;2.40;;;2.20;;
6860;SDS011;3469;47.060;15.460;2022-09-09T03:12:34;3.00;;;2.10;;
6860;SDS011;3469;47.060;15.460;2022-09-09T03:15:03;2.93;;;1.90;;
6860;SDS011;3469;47.060;15.460;2022-09-09T03:17:33;4.13;;;1.90;;
6860;SDS011;3469;47.060;15.460;2022-09-09T03:20:02;9.30;;;1.67;;
6860;SDS011;3469;47.060;15.460;2022-09-09T03:22:31;8.87;;;2.23;;
6860;SDS011;3469;47.060;15.460;2022-09-09T03:25:00;2.23;;;1.80;;
6860;SDS011;3469;47.060;15.460;2022-09-09T03:27:29;3.60;;;1.50;;
6860;SDS011;3469;47.060;15.460;2022-09-09T03:29:58;6.87;;;1.77;;
6860;SDS011;3469;47.060;15.460;2022-09-09T03:32:29;1.97;;;1.37;;
6860;SDS011;3469;47.060;15.460;2022-09-09T03:34:59;4.20;;;1.63;;
6860;SDS011;3469;47.060;15.460;2022-09-09T03:37:27;2.10;;;1.30;;
6860;SDS011;3469;47.060;15.460;2022-09-09T03:39:56;7.23;;;1.83;;
6860;SDS011;3469;47.060;15.460;2022-09-09T03:42:26;5.20;;;1.70;;
6860;SDS011;3469;47.060;15.460;2022-09-09T03:44:56;3.80;;;1.70;;
6860;SDS011;3469;47.060;15.460;2022-09-09T03:47:26;3.27;;;1.40;;
6860;SDS011;3469;47.060;15.460;2022-09-09T03:50:04;1.60;;;1.37;;
6860;SDS011;3469;47.060;15.460;2022-09-09T03:52:37;3.27;;;1.50;;
6860;SDS011;3469;47.060;15.460;2022-09-09T03:55:13;5.77;;;2.50;;
6860;SDS011;3469;47.060;15.460;2022-09-09T03:57:41;2.80;;;1.73;;
6860;SDS011;3469;47.060;15.460;2022-09-09T04:00:10;5.97;;;1.80;;
6860;SDS011;3469;47.060;15.460;2022-09-09T04:02:50;2.70;;;2.27;;
6860;SDS011;3469;47.060;15.460;2022-09-09T04:05:22;1.90;;;1.70;;
6860;SDS011;3469;47.060;15.460;2022-09-09T04:07:51;2.40;;;2.20;;
6860;SDS011;3469;47.060;15.460;2022-09-09T04:10:23;3.97;;;2.50;;
6860;SDS011;3469;47.060;15.460;2022-09-09T04:12:53;4.30;;;2.50;;
6860;SDS011;3469;47.060;15.460;2022-09-09T04:15:21;5.20;;;3.23;;
6860;SDS011;3469;47.060;15.460;2022-09-09T04:17:50;4.00;;;2.90;;
6860;SDS011;3469;47.060;15.460;2022-09-09T04:20:18;4.90;;;3.43;;
6860;SDS011;3469;47.060;15.460;2022-09-09T04:22:48;3.40;;;2.80;;
6860;SDS011;3469;47.060;15.460;2022-09-09T04:25:16;2.70;;;2.40;;
6860;SDS011;3469;47.060;15.460;2022-09-09T04:27:44;4.97;;;3.30;;
6860;SDS011;3469;47.060;15.460;2022-09-09T04:30:14;5.20;;;3.53;;
6860;SDS011;3469;47.060;15.460;2022-09-09T04:32:43;5.40;;;3.70;;
6860;SDS011;3469;47.060;15.460;2022-09-09T04:35:11;3.67;;;3.20;;
6860;SDS011;3469;47.060;15.460;2022-09-09T04:37:41;6.63;;;3.50;;
6860;SDS011;3469;47.060;15.460;2022-09-09T04:40:11;3.73;;;3.07;;
6860;SDS011;3469;47.060;15.460;2022-09-09T04:42:40;3.17;;;2.87;;
6860;SDS011;3469;47.060;15.460;2022-09-09T04:45:13;3.87;;;3.47;;
6860;SDS011;3469;47.060;15.460;2022-09-09T04:47:41;3.13;;;2.83;;
6860;SDS011;3469;47.060;15.460;2022-09-09T04:50:10;5.10;;;2.90;;
6860;SDS011;3469;47.060;15.460;2022-09-09T04:52:38;5.90;;;3.17;;
6860;SDS011;3469;47.060;15.460;2022-09-09T04:55:08;3.97;;;2.60;;
6860;SDS011;3469;47.060;15.460;2022-09-09T04:57:38;3.13;;;2.87;;
6860;SDS011;3469;47.060;15.460;2022-09-09T05:00:10;4.27;;;2.13;;
6860;SDS011;3469;47.060;15.460;2022-09-09T05:02:40;4.10;;;2.60;;
6860;SDS011;3469;47.060;15.460;2022-09-09T05:05:09;5.97;;;2.40;;
6860;SDS011;3469;47.060;15.460;2022-09-09T05:07:39;5.43;;;3.10;;
6860;SDS011;3469;47.060;15.460;2022-09-09T05:10:08;3.80;;;2.37;;
6860;SDS011;3469;47.060;15.460;2022-09-09T05:12:38;4.37;;;2.20;;
6860;SDS011;3469;47.060;15.460;2022-09-09T05:15:07;4.00;;;1.80;;
6860;SDS011;3469;47.060;15.460;2022-09-09T05:17:38;2.13;;;1.93;;
6860;SDS011;3469;47.060;15.460;2022-09-09T05:20:07;4.57;;;2.50;;
6860;SDS011;3469;47.060;15.460;2022-09-09T05:22:42;3.70;;;2.17;;
6860;SDS011;3469;47.060;15.460;2022-09-09T05:25:10;3.27;;;2.43;;
6860;SDS011;3469;47.060;15.460;2022-09-09T05:27:40;4.40;;;2.60;;
6860;SDS011;3469;47.060;15.460;2022-09-09T05:30:09;3.27;;;2.80;;
6860;SDS011;3469;47.060;15.460;2022-09-09T05:32:38;3.30;;;2.80;;
6860;SDS011;3469;47.060;15.460;2022-09-09T05:35:07;7.37;;;2.57;;
6860;SDS011;3469;47.060;15.460;2022-09-09T05:37:38;4.10;;;2.60;;
6860;SDS011;3469;47.060;15.460;2022-09-09T05:40:07;2.57;;;2.33;;
6860;SDS011;3469;47.060;15.460;2022-09-09T05:42:36;3.77;;;2.90;;
6860;SDS011;3469;47.060;15.460;2022-09-09T05:45:07;5.70;;;2.50;;
6860;SDS011;3469;47.060;15.460;2022-09-09T05:47:38;3.00;;;2.70;;
6860;SDS011;3469;47.060;15.460;2022-09-09T05:50:10;3.30;;;2.90;;
6860;SDS011;3469;47.060;15.460;2022-09-09T05:52:40;4.10;;;2.80;;
6860;SDS011;3469;47.060;15.460;2022-09-09T05:55:09;5.07;;;2.60;;
6860;SDS011;3469;47.060;15.460;2022-09-09T05:57:38;2.83;;;2.27;;
6860;SDS011;3469;47.060;15.460;2022-09-09T06:00:09;3.20;;;2.17;;
6860;SDS011;3469;47.060;15.460;2022-09-09T06:02:50;3.83;;;2.40;;
6860;SDS011;3469;47.060;15.460;2022-09-09T06:05:20;11.97;;;2.47;;
6860;SDS011;3469;47.060;15.460;2022-09-09T06:07:51;3.20;;;2.60;;
6860;SDS011;3469;47.060;15.460;2022-09-09T06:10:20;2.33;;;2.13;;
6860;SDS011;3469;47.060;15.460;2022-09-09T06:12:48;3.63;;;2.90;;
6860;SDS011;3469;47.060;15.460;2022-09-09T06:15:22;4.23;;;3.40;;
6860;SDS011;3469;47.060;15.460;2022-09-09T06:17:54;2.90;;;2.60;;
6860;SDS011;3469;47.060;15.460;2022-09-09T06:20:23;3.20;;;2.47;;
6860;SDS011;3469;47.060;15.460;2022-09-09T06:22:52;6.80;;;2.93;;
6860;SDS011;3469;47.060;15.460;2022-09-09T06:25:23;4.00;;;2.63;;
6860;SDS011;3469;47.060;15.460;2022-09-09T06:27:51;6.27;;;3.30;;
6860;SDS011;3469;47.060;15.460;2022-09-09T06:30:23;2.70;;;2.50;;
6860;SDS011;3469;47.060;15.460;2022-09-09T06:32:54;5.00;;;3.00;;
6860;SDS011;3469;47.060;15.460;2022-09-09T06:35:24;4.80;;;2.70;;
6860;SDS011;3469;47.060;15.460;2022-09-09T06:37:53;3.20;;;2.33;;
6860;SDS011;3469;47.060;15.460;2022-09-09T06:40:22;3.20;;;2.40;;
6860;SDS011;3469;47.060;15.460;2022-09-09T06:42:53;2.60;;;2.40;;
6860;SDS011;3469;47.060;15.460;2022-09-09T06:45:39;7.93;;;2.57;;
6860;SDS011;3469;47.060;15.460;2022-09-09T06:48:08;3.60;;;2.80;;
6860;SDS011;3469;47.060;15.460;2022-09-09T06:50:36;2.23;;;2.03;;
6860;SDS011;3469;47.060;15.460;2022-09-09T06:53:09;4.10;;;2.67;;
6860;SDS011;3469;47.060;15.460;2022-09-09T06:55:40;4.33;;;2.83;;
6860;SDS011;3469;47.060;15.460;2022-09-09T06:58:11;3.00;;;2.70;;
6860;SDS011;3469;47.060;15.460;2022-09-09T07:00:42;4.60;;;2.60;;
6860;SDS011;3469;47.060;15.460;2022-09-09T07:03:11;3.30;;;2.40;;
6860;SDS011;3469;47.060;15.460;2022-09-09T07:05:41;4.30;;;2.93;;
6860;SDS011;3469;47.060;15.460;2022-09-09T07:08:10;2.60;;;2.30;;
6860;SDS011;3469;47.060;15.460;2022-09-09T07:10:40;6.23;;;3.10;;
6860;SDS011;3469;47.060;15.460;2022-09-09T07:13:10;4.57;;;2.80;;
6860;SDS011;3469;47.060;15.460;2022-09-09T07:15:43;2.80;;;2.47;;
6860;SDS011;3469;47.060;15.460;2022-09-09T07:18:13;3.03;;;2.60;;
6860;SDS011;3469;47.060;15.460;2022-09-09T07:20:41;2.87;;;2.20;;
6860;SDS011;3469;47.060;15.460;2022-09-09T07:23:10;3.73;;;2.37;;
6860;SDS011;3469;47.060;15.460;2022-09-09T07:25:43;2.90;;;2.70;;
6860;SDS011;3469;47.060;15.460;2022-09-09T07:28:17;3.27;;;2.10;;
6860;SDS011;3469;47.060;15.460;2022-09-09T07:30:54;3.40;;;2.47;;
6860;SDS011;3469;47.060;15.460;2022-09-09T07:33:23;2.30;;;2.10;;
6860;SDS011;3469;47.060;15.460;2022-09-09T07:36:01;5.93;;;2.23;;
6860;SDS011;3469;47.060;15.460;2022-09-09T07:38:30;6.70;;;3.57;;
6860;SDS011;3469;47.060;15.460;2022-09-09T07:41:04;6.07;;;3.40;;
6860;SDS011;3469;47.060;15.460;2022-09-09T07:43:37;4.10;;;3.30;;
6860;SDS011;3469;47.060;15.460;2022-09-09T07:46:12;11.87;;;3.50;;
6860;SDS011;3469;47.060;15.460;2022-09-09T07:48:44;6.00;;;3.97;;
6860;SDS011;3469;47.060;15.460;2022-09-09T07:51:14;10.93;;;3.87;;
6860;SDS011;3469;47.060;15.460;2022-09-09T07:53:44;7.70;;;3.57;;
6860;SDS011;3469;47.060;15.460;2022-09-09T07:56:14;10.60;;;4.17;;
6860;SDS011;3469;47.060;15.460;2022-09-09T07:58:50;6.80;;;4.47;;
6860;SDS011;3469;47.060;15.460;2022-09-09T08:01:22;8.30;;;4.10;;
6860;SDS011;3469;47.060;15.460;2022-09-09T08:03:55;7.50;;;4.57;;
6860;SDS011;3469;47.060;15.460;2022-09-09T08:06:30;7.60;;;3.90;;
6860;SDS011;3469;47.060;15.460;2022-09-09T08:09:03;11.07;;;4.27;;
6860;SDS011;3469;47.060;15.460;2022-09-09T08:11:36;6.00;;;3.60;;
6860;SDS011;3469;47.060;15.460;2022-09-09T08:14:10;6.50;;;4.27;;
6860;SDS011;3469;47.060;15.460;2022-09-09T08:16:43;9.50;;;4.20;;
6860;SDS011;3469;47.060;15.460;2022-09-09T08:19:16;5.77;;;3.83;;
6860;SDS011;3469;47.060;15.460;2022-09-09T08:21:47;9.00;;;3.30;;
6860;SDS011;3469;47.060;15.460;2022-09-09T08:24:18;6.50;;;3.10;;
6860;SDS011;3469;47.060;15.460;2022-09-09T08:26:50;7.83;;;4.20;;
6860;SDS011;3469;47.060;15.460;2022-09-09T08:29:27;4.70;;;3.20;;
6860;SDS011;3469;47.060;15.460;2022-09-09T08:32:01;5.13;;;2.87;;
6860;SDS011;3469;47.060;15.460;2022-09-09T08:34:31;3.87;;;2.27;;
6860;SDS011;3469;47.060;15.460;2022-09-09T08:37:06;2.93;;;2.20;;
6860;SDS011;3469;47.060;15.460;2022-09-09T08:39:38;4.10;;;2.87;;
6860;SDS011;3469;47.060;15.460;2022-09-09T08:45:15;4.10;;;2.53;;
6860;SDS011;3469;47.060;15.460;2022-09-09T08:48:15;4.37;;;2.63;;
6860;SDS011;3469;47.060;15.460;2022-09-09T08:50:50;3.83;;;2.77;;
6860;SDS011;3469;47.060;15.460;2022-09-09T08:53:35;2.53;;;2.33;;
6860;SDS011;3469;47.060;15.460;2022-09-09T08:56:11;3.83;;;2.73;;
6860;SDS011;3469;47.060;15.460;2022-09-09T08:58:46;4.87;;;2.53;;
6860;SDS011;3469;47.060;15.460;2022-09-09T09:01:24;6.57;;;3.10;;
6860;SDS011;3469;47.060;15.460;2022-09-09T09:04:29;4.23;;;2.73;;
6860;SDS011;3469;47.060;15.460;2022-09-09T09:07:06;5.27;;;3.43;;
6860;SDS011;3469;47.060;15.460;2022-09-09T09:09:42;3.23;;;2.80;;
6860;SDS011;3469;47.060;15.460;2022-09-09T09:12:16;2.80;;;2.13;;
6860;SDS011;3469;47.060;15.460;2022-09-09T09:14:48;3.27;;;2.37;;
6860;SDS011;3469;47.060;15.460;2022-09-09T09:17:18;3.00;;;2.70;;
6860;SDS011;3469;47.060;15.460;2022-09-09T09:19:49;4.47;;;2.80;;
6860;SDS011;3469;47.060;15.460;2022-09-09T09:22:18;2.50;;;2.30;;
6860;SDS011;3469;47.060;15.460;2022-09-09T09:24:55;2.87;;;2.57;;
6860;SDS011;3469;47.060;15.460;2022-09-09T09:27:30;6.03;;;3.00;;
6860;SDS011;3469;47.060;15.460;2022-09-09T09:30:12;2.50;;;2.20;;
6860;SDS011;3469;47.060;15.460;2022-09-09T09:33:02;3.27;;;2.70;;
6860;SDS011;3469;47.060;15.460;2022-09-09T09:35:35;2.63;;;2.43;;
6860;SDS011;3469;47.060;15.460;2022-09-09T09:38:14;3.63;;;2.57;;
6860;SDS011;3469;47.060;15.460;2022-09-09T09:41:05;9.13;;;2.60;;
6860;SDS011;3469;47.060;15.460;2022-09-09T09:43:36;4.37;;;2.50;;
6860;SDS011;3469;47.060;15.460;2022-09-09T09:46:17;3.87;;;2.40;;
6860;SDS011;3469;47.060;15.460;2022-09-09T09:48:58;7.33;;;3.30;;
6860;SDS011;3469;47.060;15.460;2022-09-09T09:51:30;8.87;;;2.93;;
6860;SDS011;3469;47.060;15.460;2022-09-09T09:54:03;4.90;;;2.80;;
6860;SDS011;3469;47.060;15.460;2022-09-09T09:56:42;4.00;;;2.60;;
6860;SDS011;3469;47.060;15.460;2022-09-09T09:59:22;5.93;;;2.70;;
6860;SDS011;3469;47.060;15.460;2022-09-09T10:02:13;2.97;;;2.40;;
6860;SDS011;3469;47.060;15.460;2022-09-09T10:04:59;6.13;;;2.43;;
6860;SDS011;3469;47.060;15.460;2022-09-09T10:07:31;3.33;;;2.00;;
6860;SDS011;3469;47.060;15.460;2022-09-09T10:10:05;5.27;;;2.13;;
6860;SDS011;3469;47.060;15.460;2022-09-09T10:12:39;3.30;;;2.37;;
6860;SDS011;3469;47.060;15.460;2022-09-09T10:15:17;2.00;;;1.80;;
6860;SDS011;3469;47.060;15.460;2022-09-09T10:17:57;2.63;;;1.80;;
6860;SDS011;3469;47.060;15.460;2022-09-09T10:20:35;2.30;;;1.90;;
6860;SDS011;3469;47.060;15.460;2022-09-09T10:23:17;3.37;;;2.20;;
6860;SDS011;3469;47.060;15.460;2022-09-09T10:25:58;3.10;;;1.90;;
6860;SDS011;3469;47.060;15.460;2022-09-09T10:28:53;2.87;;;1.60;;
6860;SDS011;3469;47.060;15.460;2022-09-09T10:34:43;4.33;;;2.40;;
6860;SDS011;3469;47.060;15.460;2022-09-09T10:37:22;2.47;;;2.27;;
6860;SDS011;3469;47.060;15.460;2022-09-09T10:40:05;2.97;;;1.90;;
6860;SDS011;3469;47.060;15.460;2022-09-09T10:42:46;4.90;;;2.27;;
6860;SDS011;3469;47.060;15.460;2022-09-09T10:45:16;1.83;;;1.73;;
6860;SDS011;3469;47.060;15.460;2022-09-09T10:47:53;4.33;;;1.80;;
6860;SDS011;3469;47.060;15.460;2022-09-09T10:50:49;2.80;;;1.70;;
6860;SDS011;3469;47.060;15.460;2022-09-09T10:53:35;2.30;;;2.10;;
6860;SDS011;3469;47.060;15.460;2022-09-09T10:56:09;2.50;;;1.70;;
6860;SDS011;3469;47.060;15.460;2022-09-09T10:58:42;3.90;;;1.97;;
6860;SDS011;3469;47.060;15.460;2022-09-09T11:01:15;2.73;;;1.93;;
6860;SDS011;3469;47.060;15.460;2022-09-09T11:03:50;2.00;;;1.60;;
6860;SDS011;3469;47.060;15.460;2022-09-09T11:06:23;1.60;;;1.47;;
6860;SDS011;3469;47.060;15.460;2022-09-09T11:08:56;2.07;;;1.33;;
6860;SDS011;3469;47.060;15.460;2022-09-09T11:11:32;6.20;;;2.10;;
6860;SDS011;3469;47.060;15.460;2022-09-09T11:14:07;2.30;;;1.47;;
6860;SDS011;3469;47.060;15.460;2022-09-09T11:16:42;1.70;;;1.60;;
6860;SDS011;3469;47.060;15.460;2022-09-09T11:19:13;1.63;;;1.03;;
6860;SDS011;3469;47.060;15.460;2022-09-09T11:21:46;2.13;;;1.50;;
6860;SDS011;3469;47.060;15.460;2022-09-09T11:24:18;2.00;;;1.70;;
6860;SDS011;3469;47.060;15.460;2022-09-09T11:26:51;2.70;;;1.90;;
6860;SDS011;3469;47.060;15.460;2022-09-09T11:32:15;2.50;;;1.50;;
6860;SDS011;3469;47.060;15.460;2022-09-09T11:35:11;3.43;;;1.60;;
6860;SDS011;3469;47.060;15.460;2022-09-09T11:40:54;1.63;;;1.20;;
6860;SDS011;3469;47.060;15.460;2022-09-09T11:43:27;1.90;;;1.00;;
6860;SDS011;3469;47.060;15.460;2022-09-09T11:45:58;3.63;;;2.00;;
6860;SDS011;3469;47.060;15.460;2022-09-09T11:48:32;1.90;;;1.37;;
6860;SDS011;3469;47.060;15.460;2022-09-09T11:51:05;2.00;;;1.60;;
6860;SDS011;3469;47.060;15.460;2022-09-09T11:53:49;1.43;;;1.33;;
6860;SDS011;3469;47.060;15.460;2022-09-09T11:56:25;1.50;;;1.40;;
6860;SDS011;3469;47.060;15.460;2022-09-09T11:58:57;2.13;;;1.60;;
6860;SDS011;3469;47.060;15.460;2022-09-09T12:01:34;1.73;;;1.53;;
6860;SDS011;3469;47.060;15.460;2022-09-09T12:04:17;1.77;;;1.40;;
6860;SDS011;3469;47.060;15.460;2022-09-09T12:06:57;3.50;;;1.70;;
6860;SDS011;3469;47.060;15.460;2022-09-09T12:09:29;2.93;;;2.00;;
6860;SDS011;3469;47.060;15.460;2022-09-09T12:12:05;3.00;;;1.57;;
6860;SDS011;3469;47.060;15.460;2022-09-09T12:14:42;1.70;;;1.43;;
6860;SDS011;3469;47.060;15.460;2022-09-09T12:17:19;2.80;;;1.63;;
6860;SDS011;3469;47.060;15.460;2022-09-09T12:19:59;2.07;;;1.80;;
6860;SDS011;3469;47.060;15.460;2022-09-09T12:22:35;3.10;;;1.60;;
6860;SDS011;3469;47.060;15.460;2022-09-09T12:25:15;2.43;;;1.87;;
6860;SDS011;3469;47.060;15.460;2022-09-09T12:28:04;1.60;;;1.30;;
6860;SDS011;3469;47.060;15.460;2022-09-09T12:30:44;1.47;;;1.30;;
6860;SDS011;3469;47.060;15.460;2022-09-09T12:33:19;1.50;;;1.40;;
6860;SDS011;3469;47.060;15.460;2022-09-09T12:35:57;5.37;;;1.40;;
6860;SDS011;3469;47.060;15.460;2022-09-09T12:38:42;2.50;;;1.10;;
6860;SDS011;3469;47.060;15.460;2022-09-09T12:41:17;2.90;;;1.70;;
6860;SDS011;3469;47.060;15.460;2022-09-09T12:43:49;1.90;;;1.30;;
6860;SDS011;3469;47.060;15.460;2022-09-09T12:46:27;4.27;;;1.77;;
6860;SDS011;3469;47.060;15.460;2022-09-09T12:49:03;2.07;;;1.20;;
6860;SDS011;3469;47.060;15.460;2022-09-09T12:51:49;1.50;;;1.30;;
6860;SDS011;3469;47.060;15.460;2022-09-09T12:54:18;2.07;;;1.30;;
6860;SDS011;3469;47.060;15.460;2022-09-09T12:56:51;1.47;;;1.10;;
6860;SDS011;3469;47.060;15.460;2022-09-09T12:59:23;1.77;;;1.10;;
6860;SDS011;3469;47.060;15.460;2022-09-09T13:01:58;1.80;;;0.83;;
6860;SDS011;3469;47.060;15.460;2022-09-09T13:04:29;1.20;;;1.03;;
6860;SDS011;3469;47.060;15.460;2022-09-09T13:07:05;2.07;;;1.57;;
6860;SDS011;3469;47.060;15.460;2022-09-09T13:09:38;1.57;;;1.33;;
6860;SDS011;3469;47.060;15.460;2022-09-09T13:12:09;2.67;;;1.47;;
6860;SDS011;3469;47.060;15.460;2022-09-09T13:14:43;4.20;;;1.23;;
6860;SDS011;3469;47.060;15.460;2022-09-09T13:17:24;1.97;;;1.10;;
6860;SDS011;3469;47.060;15.460;2022-09-09T13:19:55;1.40;;;1.17;;
6860;SDS011;3469;47.060;15.460;2022-09-09T13:22:27;1.80;;;1.10;;
6860;SDS011;3469;47.060;15.460;2022-09-09T13:25:02;5.67;;;1.40;;
6860;SDS011;3469;47.060;15.460;2022-09-09T13:27:35;3.40;;;1.53;;
6860;SDS011;3469;47.060;15.460;2022-09-09T13:30:22;3.20;;;1.67;;
6860;SDS011;3469;47.060;15.460;2022-09-09T13:33:05;1.97;;;1.17;;
6860;SDS011;3469;47.060;15.460;2022-09-09T13:35:45;4.27;;;1.20;;
6860;SDS011;3469;47.060;15.460;2022-09-09T13:38:14;5.00;;;1.20;;
6860;SDS011;3469;47.060;15.460;2022-09-09T13:40:51;1.40;;;1.17;;
6860;SDS011;3469;47.060;15.460;2022-09-09T13:43:22;3.43;;;1.40;;
6860;SDS011;3469;47.060;15.460;2022-09-09T13:45:52;6.00;;;1.23;;
6860;SDS011;3469;47.060;15.460;2022-09-09T13:48:25;1.53;;;1.30;;
6860;SDS011;3469;47.060;15.460;2022-09-09T13:50:54;1.40;;;1.03;;
6860;SDS011;3469;47.060;15.460;2022-09-09T13:53:24;2.30;;;1.50;;
6860;SDS011;3469;47.060;15.460;2022-09-09T13:55:53;2.07;;;1.40;;
6860;SDS011;3469;47.060;15.460;2022-09-09T13:58:22;2.50;;;1.40;;
6860;SDS011;3469;47.060;15.460;2022-09-09T14:00:52;2.07;;;1.50;;
6860;SDS011;3469;47.060;15.460;2022-09-09T14:03:20;2.83;;;1.67;;
6860;SDS011;3469;47.060;15.460;2022-09-09T14:05:50;3.80;;;1.60;;
6860;SDS011;3469;47.060;15.460;2022-09-09T14:08:22;3.23;;;1.70;;
6860;SDS011;3469;47.060;15.460;2022-09-09T14:10:52;2.00;;;1.73;;
6860;SDS011;3469;47.060;15.460;2022-09-09T14:13:25;8.50;;;1.40;;
6860;SDS011;3469;47.060;15.460;2022-09-09T14:15:53;2.73;;;1.87;;
6860;SDS011;3469;47.060;15.460;2022-09-09T14:18:22;3.90;;;1.70;;
6860;SDS011;3469;47.060;15.460;2022-09-09T14:20:53;2.10;;;1.50;;
6860;SDS011;3469;47.060;15.460;2022-09-09T14:23:22;7.63;;;2.67;;
6860;SDS011;3469;47.060;15.460;2022-09-09T14:25:55;6.37;;;2.47;;
6860;SDS011;3469;47.060;15.460;2022-09-09T14:28:24;2.23;;;2.03;;
6860;SDS011;3469;47.060;15.460;2022-09-09T14:31:14;2.47;;;2.17;;
6860;SDS011;3469;47.060;15.460;2022-09-09T14:33:47;3.37;;;2.20;;
6860;SDS011;3469;47.060;15.460;2022-09-09T14:36:19;2.60;;;2.40;;
6860;SDS011;3469;47.060;15.460;2022-09-09T14:38:49;3.73;;;1.77;;
6860;SDS011;3469;47.060;15.460;2022-09-09T14:41:18;3.40;;;3.10;;
6860;SDS011;3469;47.060;15.460;2022-09-09T14:43:49;3.20;;;2.53;;
6860;SDS011;3469;47.060;15.460;2022-09-09T14:46:19;5.53;;;2.53;;
6860;SDS011;3469;47.060;15.460;2022-09-09T14:48:49;3.73;;;2.50;;
6860;SDS011;3469;47.060;15.460;2022-09-09T14:51:19;2.20;;;2.00;;
6860;SDS011;3469;47.060;15.460;2022-09-09T14:53:50;3.83;;;2.07;;
6860;SDS011;3469;47.060;15.460;2022-09-09T14:56:21;2.40;;;1.37;;
6860;SDS011;3469;47.060;15.460;2022-09-09T14:58:52;2.10;;;1.90;;
6860;SDS011;3469;47.060;15.460;2022-09-09T15:01:21;5.50;;;2.20;;
6860;SDS011;3469;47.060;15.460;2022-09-09T15:03:51;4.30;;;2.30;;
6860;SDS011;3469;47.060;15.460;2022-09-09T15:06:22;4.50;;;2.10;;
6860;SDS011;3469;47.060;15.460;2022-09-09T15:08:51;2.77;;;2.53;;
6860;SDS011;3469;47.060;15.460;2022-09-09T15:14:15;2.70;;;2.40;;
6860;SDS011;3469;47.060;15.460;2022-09-09T15:16:51;3.30;;;2.53;;
6860;SDS011;3469;47.060;15.460;2022-09-09T15:19:19;2.50;;;2.10;;
6860;SDS011;3469;47.060;15.460;2022-09-09T15:21:49;4.70;;;2.50;;
6860;SDS011;3469;47.060;15.460;2022-09-09T15:24:18;2.57;;;2.37;;
6860;SDS011;3469;47.060;15.460;2022-09-09T15:26:46;3.13;;;2.83;;
6860;SDS011;3469;47.060;15.460;2022-09-09T15:29:15;4.60;;;2.77;;
6860;SDS011;3469;47.060;15.460;2022-09-09T15:31:43;4.03;;;2.60;;
6860;SDS011;3469;47.060;15.460;2022-09-09T15:34:12;6.00;;;2.50;;
6860;SDS011;3469;47.060;15.460;2022-09-09T15:36:43;2.83;;;1.90;;
6860;SDS011;3469;47.060;15.460;2022-09-09T15:39:15;2.70;;;2.33;;
6860;SDS011;3469;47.060;15.460;2022-09-09T15:41:45;3.40;;;3.10;;
6860;SDS011;3469;47.060;15.460;2022-09-09T15:44:14;3.70;;;2.70;;
6860;SDS011;3469;47.060;15.460;2022-09-09T15:46:43;3.13;;;2.50;;
6860;SDS011;3469;47.060;15.460;2022-09-09T15:49:13;5.03;;;2.80;;
6860;SDS011;3469;47.060;15.460;2022-09-09T15:51:44;4.20;;;2.50;;
6860;SDS011;3469;47.060;15.460;2022-09-09T15:54:15;3.17;;;2.40;;
6860;SDS011;3469;47.060;15.460;2022-09-09T15:56:46;4.57;;;3.00;;
6860;SDS011;3469;47.060;15.460;2022-09-09T15:59:18;4.43;;;1.93;;